sensor_id;sensor_type;location;lat;lon;timestamp;pressure;altitude;pressure_sealevel;temperature;humidity
46756;BME280;32506;52.826;-1.192;2023-05-23T00:00:20;102002.25;;;14.03;34.71
46756;BME280;32506;52.826;-1.192;2023-05-23T00:02:45;102008.88;;;14.00;34.74
46756;BME280;32506;52.826;-1.192;2023-05-23T00:05:11;102004.72;;;13.98;34.80
46756;BME280;32506;52.826;-1.192;2023-05-23T00:07:36;102007.59;;;13.96;34.85
46756;BME280;32506;52.826;-1.192;2023-05-23T00:10:02;102007.81;;;13.95;34.95
46756;BME280;32506;52.826;-1.192;2023-05-23T00:12:28;102012.38;;;13.94;35.00
46756;BME280;32506;52.826;-1.192;2023-05-23T00:14:53;102009.25;;;13.90;34.92
46756;BME280;32506;52.826;-1.192;2023-05-23T00:17:19;102005.91;;;13.88;34.88
46756;BME280;32506;52.826;-1.192;2023-05-23T00:19:46;102012.34;;;13.87;34.95
46756;BME280;32506;52.826;-1.192;2023-05-23T00:22:11;102006.31;;;13.85;35.03
46756;BME280;32506;52.826;-1.192;2023-05-23T00:24:37;102012.72;;;13.84;34.97
46756;BME280;32506;52.826;-1.192;2023-05-23T00:27:03;102005.88;;;13.82;34.76
46756;BME280;32506;52.826;-1.192;2023-05-23T00:29:28;102006.09;;;13.80;34.63
46756;BME280;32506;52.826;-1.192;2023-05-23T00:31:54;102004.44;;;13.79;35.04
46756;BME280;32506;52.826;-1.192;2023-05-23T00:34:19;102000.09;;;13.78;35.00
46756;BME280;32506;52.826;-1.192;2023-05-23T00:36:45;102009.19;;;13.77;34.99
46756;BME280;32506;52.826;-1.192;2023-05-23T00:39:14;102005.03;;;13.74;35.04
46756;BME280;32506;52.826;-1.192;2023-05-23T00:41:45;102006.06;;;13.73;35.15
46756;BME280;32506;52.826;-1.192;2023-05-23T00:44:11;102006.25;;;13.72;35.18
46756;BME280;32506;52.826;-1.192;2023-05-23T00:46:37;101997.38;;;13.71;35.43
46756;BME280;32506;52.826;-1.192;2023-05-23T00:49:03;101997.38;;;13.71;35.43
46756;BME280;32506;52.826;-1.192;2023-05-23T00:51:28;102002.75;;;13.71;35.17
46756;BME280;32506;52.826;-1.192;2023-05-23T00:53:55;102000.28;;;13.70;35.40
46756;BME280;32506;52.826;-1.192;2023-05-23T00:56:20;101995.06;;;13.68;35.41
46756;BME280;32506;52.826;-1.192;2023-05-23T00:58:46;102000.44;;;13.68;35.27
46756;BME280;32506;52.826;-1.192;2023-05-23T01:01:12;101999.63;;;13.68;35.33
46756;BME280;32506;52.826;-1.192;2023-05-23T01:03:39;101995.28;;;13.67;35.47
46756;BME280;32506;52.826;-1.192;2023-05-23T01:06:05;102002.50;;;13.66;35.23
46756;BME280;32506;52.826;-1.192;2023-05-23T01:08:31;102000.03;;;13.65;35.28
46756;BME280;32506;52.826;-1.192;2023-05-23T01:11:00;102007.25;;;13.64;35.91
46756;BME280;32506;52.826;-1.192;2023-05-23T01:16:10;102023.56;;;13.63;35.46
46756;BME280;32506;52.826;-1.192;2023-05-23T01:19:19;102017.38;;;13.62;35.29
46756;BME280;32506;52.826;-1.192;2023-05-23T01:21:52;102008.88;;;13.58;35.60
46756;BME280;32506;52.826;-1.192;2023-05-23T01:24:35;102010.75;;;13.58;35.17
46756;BME280;32506;52.826;-1.192;2023-05-23T01:29:45;102021.03;;;13.54;35.69
46756;BME280;32506;52.826;-1.192;2023-05-23T01:32:13;102020.44;;;13.52;35.82
46756;BME280;32506;52.826;-1.192;2023-05-23T01:34:40;102021.44;;;13.51;35.64
46756;BME280;32506;52.826;-1.192;2023-05-23T01:37:08;102021.66;;;13.50;35.49
46756;BME280;32506;52.826;-1.192;2023-05-23T01:39:39;102021.81;;;13.48;35.65
46756;BME280;32506;52.826;-1.192;2023-05-23T01:42:05;102015.00;;;13.46;35.61
46756;BME280;32506;52.826;-1.192;2023-05-23T01:44:33;102017.88;;;13.44;35.56
46756;BME280;32506;52.826;-1.192;2023-05-23T01:47:00;102011.88;;;13.42;36.02
46756;BME280;32506;52.826;-1.192;2023-05-23T01:49:28;102013.75;;;13.41;35.50
46756;BME280;32506;52.826;-1.192;2023-05-23T01:51:54;102015.78;;;13.39;35.64
46756;BME280;32506;52.826;-1.192;2023-05-23T01:54:19;102011.44;;;13.38;35.81
46756;BME280;32506;52.826;-1.192;2023-05-23T01:56:46;102018.66;;;13.38;35.83
46756;BME280;32506;52.826;-1.192;2023-05-23T01:59:12;102014.31;;;13.37;35.89
46756;BME280;32506;52.826;-1.192;2023-05-23T02:01:38;102013.66;;;13.35;35.93
46756;BME280;32506;52.826;-1.192;2023-05-23T02:04:03;102015.50;;;13.34;35.80
46756;BME280;32506;52.826;-1.192;2023-05-23T02:06:29;102015.72;;;13.33;35.71
46756;BME280;32506;52.826;-1.192;2023-05-23T02:08:56;102017.56;;;13.32;35.89
46756;BME280;32506;52.826;-1.192;2023-05-23T02:11:21;102018.59;;;13.31;35.89
46756;BME280;32506;52.826;-1.192;2023-05-23T02:13:47;102009.88;;;13.29;35.76
46756;BME280;32506;52.826;-1.192;2023-05-23T02:16:12;102011.75;;;13.29;36.10
46756;BME280;32506;52.826;-1.192;2023-05-23T02:18:38;102010.09;;;13.27;36.05
46756;BME280;32506;52.826;-1.192;2023-05-23T02:21:04;102006.59;;;13.27;35.88
46756;BME280;32506;52.826;-1.192;2023-05-23T02:23:30;102005.13;;;13.24;35.91
46756;BME280;32506;52.826;-1.192;2023-05-23T02:25:55;102013.19;;;13.24;35.92
46756;BME280;32506;52.826;-1.192;2023-05-23T02:28:21;102009.84;;;13.22;36.09
46756;BME280;32506;52.826;-1.192;2023-05-23T02:30:46;102011.91;;;13.20;35.94
46756;BME280;32506;52.826;-1.192;2023-05-23T02:33:12;102011.25;;;13.18;35.84
46756;BME280;32506;52.826;-1.192;2023-05-23T02:35:38;102017.66;;;13.17;35.89
46756;BME280;32506;52.826;-1.192;2023-05-23T02:38:03;102021.38;;;13.16;35.97
46756;BME280;32506;52.826;-1.192;2023-05-23T02:40:29;102021.75;;;13.13;36.15
46756;BME280;32506;52.826;-1.192;2023-05-23T02:42:54;102025.47;;;13.12;35.85
46756;BME280;32506;52.826;-1.192;2023-05-23T02:45:22;102026.50;;;13.11;36.30
46756;BME280;32506;52.826;-1.192;2023-05-23T02:47:48;102034.75;;;13.09;36.23
46756;BME280;32506;52.826;-1.192;2023-05-23T02:50:13;102031.22;;;13.09;35.91
46756;BME280;32506;52.826;-1.192;2023-05-23T02:52:39;102027.91;;;13.07;36.09
46756;BME280;32506;52.826;-1.192;2023-05-23T02:55:07;102038.00;;;13.05;36.26
46756;BME280;32506;52.826;-1.192;2023-05-23T02:57:32;102027.47;;;13.03;36.17
46756;BME280;32506;52.826;-1.192;2023-05-23T02:59:58;102029.31;;;13.03;36.32
46756;BME280;32506;52.826;-1.192;2023-05-23T03:02:23;102032.22;;;13.01;36.25
46756;BME280;32506;52.826;-1.192;2023-05-23T03:04:49;102039.41;;;13.01;36.27
46756;BME280;32506;52.826;-1.192;2023-05-23T03:07:15;102041.47;;;12.99;36.30
46756;BME280;32506;52.826;-1.192;2023-05-23T03:09:40;102039.81;;;12.98;36.48
46756;BME280;32506;52.826;-1.192;2023-05-23T03:12:06;102036.28;;;12.97;36.45
46756;BME280;32506;52.826;-1.192;2023-05-23T03:14:31;102041.03;;;12.95;36.30
46756;BME280;32506;52.826;-1.192;2023-05-23T03:16:57;102033.16;;;12.93;36.59
46756;BME280;32506;52.826;-1.192;2023-05-23T03:19:22;102027.78;;;12.93;36.47
46756;BME280;32506;52.826;-1.192;2023-05-23T03:21:48;102031.50;;;12.92;36.43
46756;BME280;32506;52.826;-1.192;2023-05-23T03:24:15;102035.00;;;12.93;36.72
46756;BME280;32506;52.826;-1.192;2023-05-23T03:26:40;102033.38;;;12.92;36.83
46756;BME280;32506;52.826;-1.192;2023-05-23T03:29:06;102039.94;;;12.89;36.71
46756;BME280;32506;52.826;-1.192;2023-05-23T03:31:31;102044.28;;;12.90;36.77
46756;BME280;32506;52.826;-1.192;2023-05-23T03:33:57;102041.97;;;12.87;36.77
46756;BME280;32506;52.826;-1.192;2023-05-23T03:36:22;102043.00;;;12.86;36.76
46756;BME280;32506;52.826;-1.192;2023-05-23T03:38:51;102048.56;;;12.85;37.04
46756;BME280;32506;52.826;-1.192;2023-05-23T03:41:17;102036.19;;;12.84;36.70
46756;BME280;32506;52.826;-1.192;2023-05-23T03:43:42;102041.72;;;12.82;36.79
46756;BME280;32506;52.826;-1.192;2023-05-23T03:46:08;102041.91;;;12.81;36.74
46756;BME280;32506;52.826;-1.192;2023-05-23T03:48:33;102044.78;;;12.79;36.62
46756;BME280;32506;52.826;-1.192;2023-05-23T03:50:59;102038.81;;;12.77;36.71
46756;BME280;32506;52.826;-1.192;2023-05-23T03:53:24;102052.38;;;12.75;37.00
46756;BME280;32506;52.826;-1.192;2023-05-23T03:55:50;102052.56;;;12.74;37.01
46756;BME280;32506;52.826;-1.192;2023-05-23T03:58:19;102060.00;;;12.72;36.84
46756;BME280;32506;52.826;-1.192;2023-05-23T04:00:45;102062.88;;;12.70;36.81
46756;BME280;32506;52.826;-1.192;2023-05-23T04:03:10;102058.72;;;12.68;36.67
46756;BME280;32506;52.826;-1.192;2023-05-23T04:05:39;102058.06;;;12.66;36.96
46756;BME280;32506;52.826;-1.192;2023-05-23T04:08:05;102068.19;;;12.64;36.96
46756;BME280;32506;52.826;-1.192;2023-05-23T04:10:31;102061.34;;;12.61;36.88
46756;BME280;32506;52.826;-1.192;2023-05-23T04:12:56;102064.19;;;12.59;36.84
46756;BME280;32506;52.826;-1.192;2023-05-23T04:15:23;102066.25;;;12.57;36.99
46756;BME280;32506;52.826;-1.192;2023-05-23T04:17:49;102071.78;;;12.56;36.93
46756;BME280;32506;52.826;-1.192;2023-05-23T04:20:16;102064.97;;;12.53;36.89
46756;BME280;32506;52.826;-1.192;2023-05-23T04:22:41;102071.34;;;12.52;36.87
46756;BME280;32506;52.826;-1.192;2023-05-23T04:25:07;102079.56;;;12.51;37.00
46756;BME280;32506;52.826;-1.192;2023-05-23T04:27:33;102075.41;;;12.48;36.91
46756;BME280;32506;52.826;-1.192;2023-05-23T04:29:59;102073.75;;;12.47;36.96
46756;BME280;32506;52.826;-1.192;2023-05-23T04:32:25;102082.00;;;12.46;37.02
46756;BME280;32506;52.826;-1.192;2023-05-23T04:34:50;102068.97;;;12.42;37.11
46756;BME280;32506;52.826;-1.192;2023-05-23T04:37:17;102063.59;;;12.42;36.80
46756;BME280;32506;52.826;-1.192;2023-05-23T04:39:47;102075.53;;;12.40;37.03
46756;BME280;32506;52.826;-1.192;2023-05-23T04:42:12;102065.81;;;12.39;37.12
46756;BME280;32506;52.826;-1.192;2023-05-23T04:44:38;102075.72;;;12.38;37.11
46756;BME280;32506;52.826;-1.192;2023-05-23T04:47:03;102074.06;;;12.37;37.30
46756;BME280;32506;52.826;-1.192;2023-05-23T04:49:29;102070.72;;;12.35;37.32
46756;BME280;32506;52.826;-1.192;2023-05-23T04:51:58;102073.41;;;12.35;37.07
46756;BME280;32506;52.826;-1.192;2023-05-23T04:54:23;102070.72;;;12.35;37.29
46756;BME280;32506;52.826;-1.192;2023-05-23T04:56:49;102071.94;;;12.33;37.07
46756;BME280;32506;52.826;-1.192;2023-05-23T04:59:15;102071.94;;;12.33;37.06
46756;BME280;32506;52.826;-1.192;2023-05-23T05:01:40;102071.94;;;12.33;37.00
46756;BME280;32506;52.826;-1.192;2023-05-23T05:04:06;102071.94;;;12.33;37.40
46756;BME280;32506;52.826;-1.192;2023-05-23T05:06:31;102073.78;;;12.32;37.13
46756;BME280;32506;52.826;-1.192;2023-05-23T05:08:57;102063.91;;;12.33;37.23
46756;BME280;32506;52.826;-1.192;2023-05-23T05:11:23;102070.28;;;12.32;37.25
46756;BME280;32506;52.826;-1.192;2023-05-23T05:13:48;102066.75;;;12.31;37.41
46756;BME280;32506;52.826;-1.192;2023-05-23T05:16:14;102063.06;;;12.32;37.41
46756;BME280;32506;52.826;-1.192;2023-05-23T05:18:39;102071.09;;;12.32;37.32
46756;BME280;32506;52.826;-1.192;2023-05-23T05:21:05;102066.59;;;12.33;37.57
46756;BME280;32506;52.826;-1.192;2023-05-23T05:23:32;102082.69;;;12.33;37.54
46756;BME280;32506;52.826;-1.192;2023-05-23T05:25:58;102086.19;;;12.33;37.62
46756;BME280;32506;52.826;-1.192;2023-05-23T05:28:24;102082.28;;;12.36;37.64
46756;BME280;32506;52.826;-1.192;2023-05-23T05:30:50;102088.66;;;12.35;37.70
46756;BME280;32506;52.826;-1.192;2023-05-23T05:33:21;102091.16;;;12.36;37.39
46756;BME280;32506;52.826;-1.192;2023-05-23T05:35:52;102094.69;;;12.37;37.79
46756;BME280;32506;52.826;-1.192;2023-05-23T05:38:17;102101.69;;;12.38;37.68
46756;BME280;32506;52.826;-1.192;2023-05-23T05:40:43;102098.84;;;12.39;37.85
46756;BME280;32506;52.826;-1.192;2023-05-23T05:43:09;102102.16;;;12.41;37.60
46756;BME280;32506;52.826;-1.192;2023-05-23T05:45:35;102102.81;;;12.44;38.03
46756;BME280;32506;52.826;-1.192;2023-05-23T05:48:01;102101.78;;;12.45;38.04
46756;BME280;32506;52.826;-1.192;2023-05-23T05:50:26;102085.53;;;12.46;37.86
46756;BME280;32506;52.826;-1.192;2023-05-23T05:52:52;102090.31;;;12.51;37.86
46756;BME280;32506;52.826;-1.192;2023-05-23T05:55:17;102082.06;;;12.52;37.77
46756;BME280;32506;52.826;-1.192;2023-05-23T05:57:43;102080.19;;;12.53;37.91
46756;BME280;32506;52.826;-1.192;2023-05-23T06:00:10;102076.31;;;12.55;37.97
46756;BME280;32506;52.826;-1.192;2023-05-23T06:02:42;102078.84;;;12.57;37.80
46756;BME280;32506;52.826;-1.192;2023-05-23T06:05:11;102083.81;;;12.60;37.70
46756;BME280;32506;52.826;-1.192;2023-05-23T06:07:37;102087.13;;;12.62;37.83
46756;BME280;32506;52.826;-1.192;2023-05-23T06:10:03;102080.53;;;12.65;37.74
46756;BME280;32506;52.826;-1.192;2023-05-23T06:12:29;102083.88;;;12.67;38.12
46756;BME280;32506;52.826;-1.192;2023-05-23T06:14:54;102091.53;;;12.70;37.96
46756;BME280;32506;52.826;-1.192;2023-05-23T06:17:20;102087.66;;;12.72;38.06
46756;BME280;32506;52.826;-1.192;2023-05-23T06:19:46;102084.56;;;12.75;38.04
46756;BME280;32506;52.826;-1.192;2023-05-23T06:22:11;102087.72;;;12.79;37.76
46756;BME280;32506;52.826;-1.192;2023-05-23T06:24:36;102091.06;;;12.81;37.88
46756;BME280;32506;52.826;-1.192;2023-05-23T06:27:02;102089.00;;;12.83;37.74
46756;BME280;32506;52.826;-1.192;2023-05-23T06:29:28;102091.13;;;12.88;37.77
46756;BME280;32506;52.826;-1.192;2023-05-23T06:31:55;102082.47;;;12.92;37.97
46756;BME280;32506;52.826;-1.192;2023-05-23T06:34:21;102067.84;;;12.95;38.09
46756;BME280;32506;52.826;-1.192;2023-05-23T06:36:46;102065.63;;;12.99;38.09
46756;BME280;32506;52.826;-1.192;2023-05-23T06:39:12;102069.59;;;13.03;38.21
46756;BME280;32506;52.826;-1.192;2023-05-23T06:41:38;102065.50;;;13.07;38.25
46756;BME280;32506;52.826;-1.192;2023-05-23T06:44:04;102069.44;;;13.11;38.34
46756;BME280;32506;52.826;-1.192;2023-05-23T06:46:30;102071.34;;;13.17;38.79
46756;BME280;32506;52.826;-1.192;2023-05-23T06:48:55;102081.50;;;13.22;38.57
46756;BME280;32506;52.826;-1.192;2023-05-23T06:51:21;102076.19;;;13.29;38.80
46756;BME280;32506;52.826;-1.192;2023-05-23T06:53:46;102078.28;;;13.33;38.64
46756;BME280;32506;52.826;-1.192;2023-05-23T06:56:12;102083.75;;;13.40;38.99
46756;BME280;32506;52.826;-1.192;2023-05-23T06:58:37;102080.28;;;13.46;39.19
46756;BME280;32506;52.826;-1.192;2023-05-23T07:01:03;102085.72;;;13.53;39.03
46756;BME280;32506;52.826;-1.192;2023-05-23T07:03:28;102085.94;;;13.58;39.51
46756;BME280;32506;52.826;-1.192;2023-05-23T07:05:54;102091.38;;;13.65;39.24
46756;BME280;32506;52.826;-1.192;2023-05-23T07:08:20;102092.44;;;13.70;39.17
46756;BME280;32506;52.826;-1.192;2023-05-23T07:10:45;102086.09;;;13.78;39.88
46756;BME280;32506;52.826;-1.192;2023-05-23T07:13:11;102093.16;;;13.86;40.01
46756;BME280;32506;52.826;-1.192;2023-05-23T07:15:36;102089.47;;;13.93;39.63
46756;BME280;32506;52.826;-1.192;2023-05-23T07:18:02;102093.84;;;14.01;39.68
46756;BME280;32506;52.826;-1.192;2023-05-23T07:20:28;102098.03;;;14.10;39.86
46756;BME280;32506;52.826;-1.192;2023-05-23T07:22:53;102090.44;;;14.21;40.42
46756;BME280;32506;52.826;-1.192;2023-05-23T07:25:19;102089.41;;;14.29;40.46
46756;BME280;32506;52.826;-1.192;2023-05-23T07:27:47;102101.66;;;14.38;40.74
46756;BME280;32506;52.826;-1.192;2023-05-23T07:30:12;102101.47;;;14.46;40.48
46756;BME280;32506;52.826;-1.192;2023-05-23T07:32:38;102098.44;;;14.56;40.65
46756;BME280;32506;52.826;-1.192;2023-05-23T07:35:04;102110.88;;;14.64;40.63
46756;BME280;32506;52.826;-1.192;2023-05-23T07:37:29;102103.47;;;14.72;40.85
46756;BME280;32506;52.826;-1.192;2023-05-23T07:39:55;102111.34;;;14.81;40.58
46756;BME280;32506;52.826;-1.192;2023-05-23T07:42:20;102114.69;;;14.89;40.63
46756;BME280;32506;52.826;-1.192;2023-05-23T07:44:46;102108.47;;;14.96;40.57
46756;BME280;32506;52.826;-1.192;2023-05-23T07:47:11;102110.97;;;15.04;40.81
46756;BME280;32506;52.826;-1.192;2023-05-23T07:49:37;102113.28;;;15.14;40.73
46756;BME280;32506;52.826;-1.192;2023-05-23T07:52:02;102113.06;;;15.22;40.76
46756;BME280;32506;52.826;-1.192;2023-05-23T07:54:28;102108.13;;;15.32;40.87
46756;BME280;32506;52.826;-1.192;2023-05-23T07:56:53;102117.63;;;15.41;40.82
46756;BME280;32506;52.826;-1.192;2023-05-23T07:59:19;102109.34;;;15.50;41.22
46756;BME280;32506;52.826;-1.192;2023-05-23T08:01:44;102108.91;;;15.59;41.01
46756;BME280;32506;52.826;-1.192;2023-05-23T08:04:10;102108.47;;;15.69;41.03
46756;BME280;32506;52.826;-1.192;2023-05-23T08:06:36;102108.25;;;15.77;40.96
46756;BME280;32506;52.826;-1.192;2023-05-23T08:09:02;102104.13;;;15.88;40.91
46756;BME280;32506;52.826;-1.192;2023-05-23T08:11:28;102104.72;;;15.97;41.01
46756;BME280;32506;52.826;-1.192;2023-05-23T08:13:54;102113.22;;;16.07;41.01
46756;BME280;32506;52.826;-1.192;2023-05-23T08:16:20;102116.28;;;16.18;41.07
46756;BME280;32506;52.826;-1.192;2023-05-23T08:18:46;102115.00;;;16.27;41.09
46756;BME280;32506;52.826;-1.192;2023-05-23T08:21:11;102117.03;;;16.38;40.85
46756;BME280;32506;52.826;-1.192;2023-05-23T08:23:36;102121.75;;;16.50;41.03
46756;BME280;32506;52.826;-1.192;2023-05-23T08:26:02;102121.28;;;16.59;40.81
46756;BME280;32506;52.826;-1.192;2023-05-23T08:28:27;102128.72;;;16.71;40.85
46756;BME280;32506;52.826;-1.192;2023-05-23T08:30:53;102130.13;;;16.80;40.55
46756;BME280;32506;52.826;-1.192;2023-05-23T08:33:18;102142.34;;;16.89;40.59
46756;BME280;32506;52.826;-1.192;2023-05-23T08:35:44;102138.53;;;16.97;40.34
46756;BME280;32506;52.826;-1.192;2023-05-23T08:38:10;102128.53;;;17.04;40.45
46756;BME280;32506;52.826;-1.192;2023-05-23T08:40:36;102128.50;;;17.11;40.31
46756;BME280;32506;52.826;-1.192;2023-05-23T08:43:03;102130.91;;;17.19;40.29
46756;BME280;32506;52.826;-1.192;2023-05-23T08:45:29;102128.16;;;17.26;40.16
46756;BME280;32506;52.826;-1.192;2023-05-23T08:47:59;102126.22;;;17.33;40.36
46756;BME280;32506;52.826;-1.192;2023-05-23T08:50:27;102129.50;;;17.42;40.17
46756;BME280;32506;52.826;-1.192;2023-05-23T08:52:59;102132.97;;;17.49;40.03
46756;BME280;32506;52.826;-1.192;2023-05-23T08:55:27;102122.09;;;17.56;39.93
46756;BME280;32506;52.826;-1.192;2023-05-23T08:57:57;102121.44;;;17.60;39.89
46756;BME280;32506;52.826;-1.192;2023-05-23T09:00:26;102129.47;;;17.67;39.79
46756;BME280;32506;52.826;-1.192;2023-05-23T09:02:52;102128.81;;;17.72;39.85
46756;BME280;32506;52.826;-1.192;2023-05-23T09:05:19;102136.84;;;17.78;39.48
46756;BME280;32506;52.826;-1.192;2023-05-23T09:07:45;102137.00;;;17.84;39.54
46756;BME280;32506;52.826;-1.192;2023-05-23T09:10:15;102132.56;;;17.89;39.60
46756;BME280;32506;52.826;-1.192;2023-05-23T09:12:47;102137.31;;;17.94;39.55
46756;BME280;32506;52.826;-1.192;2023-05-23T09:15:12;102143.75;;;18.00;39.40
46756;BME280;32506;52.826;-1.192;2023-05-23T09:17:38;102145.19;;;18.02;39.35
46756;BME280;32506;52.826;-1.192;2023-05-23T09:20:13;102137.19;;;18.07;39.42
46756;BME280;32506;52.826;-1.192;2023-05-23T09:22:40;102131.34;;;18.10;39.35
46756;BME280;32506;52.826;-1.192;2023-05-23T09:25:06;102131.69;;;18.14;39.18
46756;BME280;32506;52.826;-1.192;2023-05-23T09:27:32;102126.69;;;18.18;39.22
46756;BME280;32506;52.826;-1.192;2023-05-23T09:30:08;102131.41;;;18.22;39.24
46756;BME280;32506;52.826;-1.192;2023-05-23T09:32:34;102130.13;;;18.25;39.19
46756;BME280;32506;52.826;-1.192;2023-05-23T09:35:06;102131.34;;;18.29;39.22
46756;BME280;32506;52.826;-1.192;2023-05-23T09:37:42;102127.72;;;18.35;39.21
46756;BME280;32506;52.826;-1.192;2023-05-23T09:40:11;102130.78;;;18.39;39.18
46756;BME280;32506;52.826;-1.192;2023-05-23T09:42:42;102130.94;;;18.44;39.26
46756;BME280;32506;52.826;-1.192;2023-05-23T09:45:08;102132.72;;;18.50;39.17
46756;BME280;32506;52.826;-1.192;2023-05-23T09:47:34;102123.94;;;18.55;38.95
46756;BME280;32506;52.826;-1.192;2023-05-23T09:49:59;102121.94;;;18.62;39.02
46756;BME280;32506;52.826;-1.192;2023-05-23T09:52:25;102122.91;;;18.68;39.03
46756;BME280;32506;52.826;-1.192;2023-05-23T09:54:51;102125.53;;;18.74;38.88
46756;BME280;32506;52.826;-1.192;2023-05-23T09:57:18;102123.56;;;18.82;38.92
46756;BME280;32506;52.826;-1.192;2023-05-23T09:59:51;102125.97;;;18.90;38.98
46756;BME280;32506;52.826;-1.192;2023-05-23T10:02:38;102129.16;;;18.99;38.89
46756;BME280;32506;52.826;-1.192;2023-05-23T10:05:10;102129.44;;;19.09;38.98
46756;BME280;32506;52.826;-1.192;2023-05-23T10:07:39;102125.91;;;19.20;39.07
46756;BME280;32506;52.826;-1.192;2023-05-23T10:10:07;102124.88;;;19.33;39.02
46756;BME280;32506;52.826;-1.192;2023-05-23T10:12:55;102126.44;;;19.53;39.03
46756;BME280;32506;52.826;-1.192;2023-05-23T10:15:25;102124.28;;;19.67;39.17
46756;BME280;32506;52.826;-1.192;2023-05-23T10:18:04;102128.56;;;19.86;39.15
46756;BME280;32506;52.826;-1.192;2023-05-23T10:20:33;102123.22;;;20.03;38.82
46756;BME280;32506;52.826;-1.192;2023-05-23T10:23:01;102120.59;;;20.20;38.90
46756;BME280;32506;52.826;-1.192;2023-05-23T10:25:27;102116.03;;;20.38;38.61
46756;BME280;32506;52.826;-1.192;2023-05-23T10:27:57;102119.16;;;20.58;38.67
46756;BME280;32506;52.826;-1.192;2023-05-23T10:30:27;102120.88;;;20.76;38.33
46756;BME280;32506;52.826;-1.192;2023-05-23T10:32:56;102119.34;;;20.98;38.15
46756;BME280;32506;52.826;-1.192;2023-05-23T10:35:58;102118.94;;;21.23;38.84
46756;BME280;32506;52.826;-1.192;2023-05-23T10:38:35;102117.94;;;21.46;38.57
46756;BME280;32506;52.826;-1.192;2023-05-23T10:41:26;102120.81;;;21.73;38.40
46756;BME280;32506;52.826;-1.192;2023-05-23T10:44:28;102115.97;;;21.98;37.92
46756;BME280;32506;52.826;-1.192;2023-05-23T10:46:55;102115.41;;;22.18;37.76
46756;BME280;32506;52.826;-1.192;2023-05-23T10:49:43;102113.25;;;22.42;37.71
46756;BME280;32506;52.826;-1.192;2023-05-23T10:52:13;102109.59;;;22.58;37.14
46756;BME280;32506;52.826;-1.192;2023-05-23T10:54:49;102106.50;;;22.77;37.15
46756;BME280;32506;52.826;-1.192;2023-05-23T10:57:16;102114.84;;;22.92;37.13
46756;BME280;32506;52.826;-1.192;2023-05-23T10:59:44;102107.59;;;23.08;36.55
46756;BME280;32506;52.826;-1.192;2023-05-23T11:02:24;102102.31;;;23.24;36.14
46756;BME280;32506;52.826;-1.192;2023-05-23T11:05:22;102100.22;;;23.41;35.42
46756;BME280;32506;52.826;-1.192;2023-05-23T11:11:00;102092.75;;;23.69;34.77
46756;BME280;32506;52.826;-1.192;2023-05-23T11:13:57;102096.41;;;23.85;34.84
46756;BME280;32506;52.826;-1.192;2023-05-23T11:16:31;102089.09;;;23.96;34.39
46756;BME280;32506;52.826;-1.192;2023-05-23T11:19:30;102089.97;;;24.17;34.10
46756;BME280;32506;52.826;-1.192;2023-05-23T11:21:59;102088.66;;;24.30;34.02
46756;BME280;32506;52.826;-1.192;2023-05-23T11:24:48;102089.53;;;24.51;34.08
46756;BME280;32506;52.826;-1.192;2023-05-23T11:27:15;102083.00;;;24.62;34.07
46756;BME280;32506;52.826;-1.192;2023-05-23T11:29:45;102085.22;;;24.81;34.02
46756;BME280;32506;52.826;-1.192;2023-05-23T11:32:20;102084.38;;;25.01;33.98
46756;BME280;32506;52.826;-1.192;2023-05-23T11:34:46;102088.47;;;25.19;34.03
46756;BME280;32506;52.826;-1.192;2023-05-23T11:37:11;102076.44;;;25.36;33.72
46756;BME280;32506;52.826;-1.192;2023-05-23T11:39:37;102071.47;;;25.53;33.89
46756;BME280;32506;52.826;-1.192;2023-05-23T11:42:03;102071.13;;;25.70;33.63
46756;BME280;32506;52.826;-1.192;2023-05-23T11:44:28;102074.63;;;25.86;33.52
46756;BME280;32506;52.826;-1.192;2023-05-23T11:47:04;102072.38;;;26.04;33.47
46756;BME280;32506;52.826;-1.192;2023-05-23T11:49:34;102074.25;;;26.19;33.49
46756;BME280;32506;52.826;-1.192;2023-05-23T11:52:01;102074.94;;;26.35;33.42
46756;BME280;32506;52.826;-1.192;2023-05-23T11:54:27;102074.84;;;26.50;33.58
46756;BME280;32506;52.826;-1.192;2023-05-23T11:56:54;102070.88;;;26.67;33.04
46756;BME280;32506;52.826;-1.192;2023-05-23T11:59:24;102072.44;;;26.83;33.06
46756;BME280;32506;52.826;-1.192;2023-05-23T12:01:53;102073.94;;;27.00;33.29
46756;BME280;32506;52.826;-1.192;2023-05-23T12:04:19;102071.56;;;27.17;32.90
46756;BME280;32506;52.826;-1.192;2023-05-23T12:06:48;102069.50;;;27.33;32.86
46756;BME280;32506;52.826;-1.192;2023-05-23T12:09:15;102067.94;;;27.51;32.79
46756;BME280;32506;52.826;-1.192;2023-05-23T12:11:42;102070.53;;;27.67;32.40
46756;BME280;32506;52.826;-1.192;2023-05-23T12:14:08;102075.00;;;27.82;32.52
46756;BME280;32506;52.826;-1.192;2023-05-23T12:16:38;102077.03;;;27.95;31.87
46756;BME280;32506;52.826;-1.192;2023-05-23T12:19:04;102070.00;;;28.08;31.66
46756;BME280;32506;52.826;-1.192;2023-05-23T12:22:04;102085.19;;;28.24;31.92
46756;BME280;32506;52.826;-1.192;2023-05-23T12:24:30;102079.81;;;28.33;31.28
46756;BME280;32506;52.826;-1.192;2023-05-23T12:27:00;102074.66;;;28.45;31.25
46756;BME280;32506;52.826;-1.192;2023-05-23T12:29:29;102068.72;;;28.57;31.33
46756;BME280;32506;52.826;-1.192;2023-05-23T12:31:57;102065.22;;;28.71;31.25
46756;BME280;32506;52.826;-1.192;2023-05-23T12:34:23;102068.31;;;28.83;31.15
46756;BME280;32506;52.826;-1.192;2023-05-23T12:36:49;102065.94;;;28.95;30.91
46756;BME280;32506;52.826;-1.192;2023-05-23T12:39:23;102067.06;;;29.08;30.71
46756;BME280;32506;52.826;-1.192;2023-05-23T12:41:49;102061.69;;;29.17;30.65
46756;BME280;32506;52.826;-1.192;2023-05-23T12:44:15;102063.13;;;29.28;30.20
46756;BME280;32506;52.826;-1.192;2023-05-23T12:46:41;102072.00;;;29.39;30.17
46756;BME280;32506;52.826;-1.192;2023-05-23T12:49:09;102062.44;;;29.51;30.30
46756;BME280;32506;52.826;-1.192;2023-05-23T12:51:35;102060.28;;;29.61;29.84